createdAt,value
2022-11-03T00:00:14.986Z,11.20
2022-11-03T00:02:17.697Z,11.10
2022-11-03T00:04:21.413Z,11.10
2022-11-03T00:06:23.875Z,11.10
2022-11-03T00:08:26.701Z,11.10
2022-11-03T00:10:29.811Z,11.00
2022-11-03T00:12:32.595Z,10.80
2022-11-03T00:14:35.150Z,10.80
2022-11-03T00:16:38.026Z,10.70
2022-11-03T00:18:40.641Z,10.60
2022-11-03T00:20:43.143Z,10.60
2022-11-03T00:22:45.648Z,10.70
2022-11-03T00:24:48.142Z,10.60
2022-11-03T00:26:50.604Z,10.50
2022-11-03T00:28:54.199Z,10.40
2022-11-03T00:30:56.715Z,10.30
2022-11-03T00:32:59.238Z,10.20
2022-11-03T00:35:01.776Z,10.00
2022-11-03T00:37:04.243Z,10.10
2022-11-03T00:39:07.058Z,10.00
2022-11-03T00:41:10.255Z,10.10
2022-11-03T00:43:14.476Z,9.90
2022-11-03T00:45:17.042Z,9.90
2022-11-03T00:47:23.267Z,9.80
2022-11-03T00:49:23.894Z,9.70
2022-11-03T00:51:27.171Z,9.70
2022-11-03T00:53:30.075Z,9.80
2022-11-03T00:55:32.549Z,9.90
2022-11-03T00:57:35.046Z,10.10
2022-11-03T00:59:37.530Z,10.30
2022-11-03T01:01:45.221Z,10.50
2022-11-03T01:03:48.444Z,10.80
2022-11-03T01:06:08.664Z,11.90
2022-11-03T01:08:11.190Z,11.10
2022-11-03T01:10:13.943Z,11.20
2022-11-03T01:12:17.595Z,11.20
2022-11-03T01:14:20.079Z,11.30
2022-11-03T01:16:22.768Z,11.40
2022-11-03T01:18:25.301Z,11.50
2022-11-03T01:20:27.870Z,11.50
2022-11-03T01:22:30.341Z,11.50
2022-11-03T01:24:34.129Z,11.60
2022-11-03T01:26:36.880Z,11.60
2022-11-03T01:28:40.139Z,11.60
2022-11-03T01:30:42.715Z,11.60
2022-11-03T01:32:45.187Z,11.60
2022-11-03T01:34:47.690Z,11.60
2022-11-03T01:36:50.200Z,11.70
2022-11-03T01:38:54.300Z,11.70
2022-11-03T01:40:56.771Z,11.70
2022-11-03T01:43:15.019Z,11.80
2022-11-03T01:45:17.726Z,11.80
2022-11-03T01:47:22.504Z,11.80
2022-11-03T01:49:26.452Z,11.80
2022-11-03T01:51:30.088Z,11.70
2022-11-03T01:53:33.501Z,11.70
2022-11-03T01:55:39.384Z,11.70
2022-11-03T01:57:43.912Z,11.80
2022-11-03T01:59:47.705Z,11.80
2022-11-03T02:01:52.466Z,11.80
2022-11-03T02:03:56.849Z,11.70
2022-11-03T02:05:59.648Z,11.70
2022-11-03T02:08:04.224Z,11.70
2022-11-03T02:10:08.316Z,11.80
2022-11-03T02:12:11.417Z,11.80
2022-11-03T02:14:14.020Z,11.90
2022-11-03T02:16:16.521Z,11.90
2022-11-03T02:18:20.028Z,12.00
2022-11-03T02:20:24.651Z,12.10
2022-11-03T02:22:37.565Z,12.00
2022-11-03T02:24:42.159Z,12.00
2022-11-03T02:26:46.436Z,12.20
2022-11-03T02:28:49.093Z,12.10
2022-11-03T02:30:54.531Z,12.10
2022-11-03T02:32:58.790Z,12.10
2022-11-03T02:35:03.361Z,12.10
2022-11-03T02:37:07.973Z,12.20
2022-11-03T02:39:12.324Z,12.10
2022-11-03T02:41:16.119Z,12.10
2022-11-03T02:43:19.477Z,12.10
2022-11-03T02:45:22.953Z,12.10
2022-11-03T02:47:25.766Z,12.10
2022-11-03T02:49:28.240Z,12.00
2022-11-03T02:51:30.737Z,12.00
2022-11-03T02:53:33.609Z,12.00
2022-11-03T02:55:38.138Z,12.00
2022-11-03T02:57:43.064Z,11.90
2022-11-03T02:59:47.484Z,11.90
2022-11-03T03:01:52.071Z,11.90
2022-11-03T03:03:56.727Z,11.90
2022-11-03T03:06:01.007Z,11.80
2022-11-03T03:08:05.227Z,11.80
2022-11-03T03:10:09.798Z,11.80
2022-11-03T03:12:14.363Z,11.80
2022-11-03T03:14:18.479Z,11.80
2022-11-03T03:16:22.805Z,11.80
2022-11-03T03:18:27.073Z,11.70
2022-11-03T03:20:31.367Z,11.70
2022-11-03T03:22:35.750Z,11.70
2022-11-03T03:24:40.432Z,11.70
2022-11-03T03:26:45.241Z,11.70
2022-11-03T03:28:49.885Z,11.70
2022-11-03T03:30:53.608Z,11.70
2022-11-03T03:32:57.370Z,11.70
2022-11-03T03:35:00.981Z,11.70
2022-11-03T03:37:04.806Z,11.70
2022-11-03T03:39:07.574Z,11.70
2022-11-03T03:41:11.840Z,11.70
2022-11-03T03:43:15.125Z,11.70
2022-11-03T03:45:18.332Z,11.70
2022-11-03T03:47:23.268Z,11.70
2022-11-03T03:49:25.776Z,11.70
2022-11-03T03:51:28.800Z,11.80
2022-11-03T03:53:31.468Z,11.70
2022-11-03T03:55:36.101Z,11.70
2022-11-03T03:57:38.605Z,11.60
2022-11-03T03:59:41.406Z,11.60
2022-11-03T04:01:44.041Z,11.70
2022-11-03T04:03:46.596Z,11.70
2022-11-03T04:05:49.080Z,11.60
2022-11-03T04:07:51.799Z,11.70
2022-11-03T04:09:54.355Z,11.70
2022-11-03T04:12:15.076Z,11.70
2022-11-03T04:14:49.272Z,11.70
2022-11-03T04:19:27.628Z,11.80
2022-11-03T04:21:48.171Z,11.80
2022-11-03T04:23:50.694Z,11.80
2022-11-03T04:25:54.347Z,11.80
2022-11-03T04:27:56.931Z,11.80
2022-11-03T04:30:04.861Z,11.80
2022-11-03T04:32:10.445Z,11.80
2022-11-03T04:34:12.959Z,11.70
2022-11-03T04:36:17.618Z,11.80
2022-11-03T04:38:21.946Z,11.80
2022-11-03T04:40:24.732Z,11.70
2022-11-03T04:42:29.144Z,11.80
2022-11-03T04:44:31.773Z,11.70
2022-11-03T04:46:34.276Z,11.70
2022-11-03T04:48:36.939Z,11.70
2022-11-03T04:50:42.865Z,11.50
2022-11-03T04:52:44.105Z,11.50
2022-11-03T04:54:47.447Z,11.40
2022-11-03T04:56:49.960Z,11.30
2022-11-03T04:58:52.758Z,11.20
2022-11-03T05:00:57.110Z,11.20
2022-11-03T05:02:59.652Z,11.20
2022-11-03T05:05:03.984Z,11.20
2022-11-03T05:07:10.056Z,11.10
2022-11-03T05:09:14.851Z,11.20
2022-11-03T05:11:20.272Z,11.20
2022-11-03T05:13:25.362Z,11.20
2022-11-03T05:15:29.752Z,11.20
2022-11-03T05:17:32.656Z,11.30
2022-11-03T05:19:37.147Z,11.30
2022-11-03T05:21:39.632Z,11.30
2022-11-03T05:23:43.937Z,11.30
2022-11-03T05:25:47.416Z,11.40
2022-11-03T05:27:49.900Z,11.50
2022-11-03T05:29:55.176Z,11.50
2022-11-03T05:31:58.691Z,11.50
2022-11-03T05:34:01.767Z,11.50
2022-11-03T05:36:07.379Z,11.50
2022-11-03T05:38:12.433Z,11.50
2022-11-03T05:40:17.400Z,11.50
2022-11-03T05:42:22.679Z,11.80
2022-11-03T05:44:27.537Z,11.50
2022-11-03T05:46:31.206Z,11.50
2022-11-03T05:48:35.567Z,11.40
2022-11-03T05:50:39.727Z,11.40
2022-11-03T05:52:43.525Z,11.50
2022-11-03T05:54:46.005Z,11.50
2022-11-03T05:56:49.054Z,11.50
2022-11-03T05:58:52.062Z,11.50
2022-11-03T06:00:54.867Z,11.50
2022-11-03T06:02:57.993Z,11.50
2022-11-03T06:05:00.507Z,11.50
2022-11-03T06:07:03.948Z,11.50
2022-11-03T06:09:11.247Z,11.50
2022-11-03T06:11:18.377Z,11.50
2022-11-03T06:13:23.161Z,11.50
2022-11-03T06:15:29.792Z,11.50
2022-11-03T06:17:32.292Z,11.50
2022-11-03T06:19:37.021Z,11.50
2022-11-03T06:21:44.419Z,11.60
2022-11-03T06:23:44.276Z,11.50
2022-11-03T06:25:46.750Z,11.50
2022-11-03T06:27:49.546Z,11.50
2022-11-03T06:29:53.314Z,11.40
2022-11-03T06:31:56.610Z,11.50
2022-11-03T06:33:59.114Z,11.50
2022-11-03T06:36:03.162Z,11.50
2022-11-03T06:38:06.133Z,11.50
2022-11-03T06:40:24.205Z,11.50
2022-11-03T06:42:31.800Z,11.50
2022-11-03T06:44:31.631Z,11.50
2022-11-03T06:46:34.137Z,11.50
2022-11-03T06:48:38.517Z,11.50
2022-11-03T06:50:44.896Z,11.60
2022-11-03T06:52:46.564Z,11.60
2022-11-03T06:54:49.576Z,11.70
2022-11-03T06:56:52.109Z,11.70
2022-11-03T06:58:56.008Z,11.70
2022-11-03T07:01:03.281Z,11.70
2022-11-03T07:03:07.004Z,11.80
2022-11-03T07:05:12.530Z,11.80
2022-11-03T07:07:15.039Z,11.80
2022-11-03T07:09:19.309Z,11.90
2022-11-03T07:11:22.636Z,11.90
2022-11-03T07:13:25.841Z,11.90
2022-11-03T07:15:30.749Z,12.00
2022-11-03T07:17:33.845Z,11.90
2022-11-03T07:19:38.641Z,12.00
2022-11-03T07:21:42.965Z,12.00
2022-11-03T07:23:47.282Z,12.00
2022-11-03T07:25:53.848Z,12.00
2022-11-03T07:27:57.245Z,12.10
2022-11-03T07:30:01.170Z,12.10
2022-11-03T07:32:07.946Z,12.10
2022-11-03T07:34:12.497Z,12.10
2022-11-03T07:36:16.844Z,12.10
2022-11-03T07:38:21.113Z,12.10
2022-11-03T07:40:24.434Z,12.20
2022-11-03T07:42:27.165Z,12.30
2022-11-03T07:44:31.576Z,12.30
2022-11-03T07:46:34.108Z,12.20
2022-11-03T07:48:38.626Z,12.30
2022-11-03T07:50:41.544Z,12.30
2022-11-03T07:52:44.020Z,12.40
2022-11-03T07:54:46.601Z,12.40
2022-11-03T07:56:50.661Z,12.40
2022-11-03T07:58:54.174Z,12.40
2022-11-03T08:00:57.528Z,12.40
2022-11-03T08:03:01.050Z,12.50
2022-11-03T08:05:03.908Z,12.60
2022-11-03T08:07:06.716Z,12.60
2022-11-03T08:09:09.246Z,12.60
2022-11-03T08:11:11.744Z,12.70
2022-11-03T08:13:14.374Z,12.70
2022-11-03T08:15:16.918Z,12.70
2022-11-03T08:17:19.404Z,12.80
2022-11-03T08:19:21.906Z,12.80
2022-11-03T08:21:24.393Z,12.90
2022-11-03T08:23:27.069Z,12.90
2022-11-03T08:25:29.594Z,13.00
2022-11-03T08:27:32.060Z,13.00
2022-11-03T08:29:34.568Z,13.00
2022-11-03T08:31:37.034Z,13.00
2022-11-03T08:33:39.723Z,13.10
2022-11-03T08:35:42.330Z,13.10
2022-11-03T08:37:44.814Z,13.20
2022-11-03T08:39:47.357Z,13.20
2022-11-03T08:41:49.823Z,13.30
2022-11-03T08:43:52.413Z,13.40
2022-11-03T08:45:55.237Z,13.40
2022-11-03T08:47:57.830Z,13.50
2022-11-03T08:50:00.724Z,13.50
2022-11-03T08:52:03.384Z,13.50
2022-11-03T08:54:06.549Z,13.50
2022-11-03T08:56:12.496Z,13.60
2022-11-03T08:58:14.086Z,13.60
2022-11-03T09:00:17.181Z,13.60
2022-11-03T09:02:19.789Z,13.60
2022-11-03T09:04:22.321Z,13.60
2022-11-03T09:06:25.112Z,13.60
2022-11-03T09:10:33.461Z,13.60
2022-11-03T09:12:36.427Z,13.60
2022-11-03T09:14:38.886Z,13.70
2022-11-03T09:16:41.693Z,13.60
2022-11-03T09:18:44.779Z,13.70
2022-11-03T09:20:47.349Z,13.80
2022-11-03T09:22:49.815Z,13.80
2022-11-03T09:24:52.301Z,13.90
2022-11-03T09:26:59.487Z,13.90
2022-11-03T09:28:59.263Z,14.00
2022-11-03T09:31:01.755Z,14.00
2022-11-03T09:33:04.497Z,14.10
2022-11-03T09:35:08.263Z,14.10
2022-11-03T09:37:10.990Z,14.10
2022-11-03T09:39:13.540Z,14.20
2022-11-03T09:41:26.697Z,14.20
2022-11-03T09:43:22.296Z,14.30
2022-11-03T09:45:24.863Z,14.60
2022-11-03T09:47:28.834Z,14.50
2022-11-03T09:49:32.152Z,14.60
2022-11-03T09:51:36.034Z,14.60
2022-11-03T09:53:38.516Z,14.70
2022-11-03T09:55:41.003Z,14.80
2022-11-03T09:57:43.613Z,14.90
2022-11-03T09:59:47.100Z,15.00
2022-11-03T10:01:50.679Z,15.00
2022-11-03T10:03:55.100Z,15.00
2022-11-03T10:05:57.984Z,15.00
2022-11-03T10:08:02.393Z,14.90
2022-11-03T10:10:05.810Z,14.90
2022-11-03T10:12:09.033Z,14.90
2022-11-03T10:14:13.256Z,14.90
2022-11-03T10:16:17.153Z,14.90
2022-11-03T10:18:19.628Z,14.90
2022-11-03T10:20:22.547Z,14.90
2022-11-03T10:22:25.027Z,14.90
2022-11-03T10:24:27.533Z,14.90
2022-11-03T10:26:33.648Z,14.90
2022-11-03T10:28:36.569Z,14.90
2022-11-03T10:31:10.020Z,14.80
2022-11-03T10:32:51.784Z,14.90
2022-11-03T10:34:54.265Z,14.90
2022-11-03T10:37:20.394Z,14.90
2022-11-03T10:39:24.936Z,14.90
2022-11-03T10:41:28.263Z,14.90
2022-11-03T10:43:30.948Z,15.00
2022-11-03T10:45:33.481Z,14.90
2022-11-03T10:47:35.956Z,14.90
2022-11-03T10:49:43.357Z,14.90
2022-11-03T10:51:44.145Z,14.80
2022-11-03T10:53:46.638Z,14.90
2022-11-03T10:55:49.165Z,14.80
2022-11-03T10:57:53.167Z,14.90
2022-11-03T10:59:56.124Z,14.80
2022-11-03T11:01:58.843Z,14.80
2022-11-03T11:04:01.569Z,14.80
2022-11-03T11:06:04.202Z,14.70
2022-11-03T11:08:08.693Z,14.70
2022-11-03T11:10:13.545Z,14.70
2022-11-03T11:12:17.198Z,14.80
2022-11-03T11:14:24.843Z,14.80
2022-11-03T11:16:45.332Z,14.80
2022-11-03T11:19:05.783Z,14.80
2022-11-03T11:21:30.726Z,14.80
2022-11-03T11:23:52.502Z,14.90
2022-11-03T11:26:08.998Z,14.90
2022-11-03T11:28:13.934Z,14.90
2022-11-03T11:30:35.577Z,14.90
2022-11-03T11:32:57.339Z,14.90
2022-11-03T11:34:59.876Z,14.90
2022-11-03T11:37:54.922Z,15.00
2022-11-03T11:39:57.597Z,15.00
2022-11-03T11:42:11.242Z,14.90
2022-11-03T11:44:32.394Z,14.90
2022-11-03T11:46:41.733Z,14.90
2022-11-03T11:48:44.432Z,14.90
2022-11-03T11:50:46.967Z,14.90
2022-11-03T11:52:51.280Z,14.90
2022-11-03T11:54:53.805Z,14.90
2022-11-03T11:56:56.445Z,14.90
2022-11-03T11:59:00.161Z,15.00
2022-11-03T12:01:03.874Z,15.00
2022-11-03T12:03:06.832Z,15.00
2022-11-03T12:05:18.784Z,15.20
2022-11-03T12:07:32.285Z,15.30
2022-11-03T12:09:34.756Z,15.40
2022-11-03T12:11:45.913Z,15.60
2022-11-03T12:13:50.681Z,15.80
2022-11-03T12:15:56.798Z,16.00
2022-11-03T12:17:59.307Z,16.40
2022-11-03T12:20:03.637Z,16.60
2022-11-03T12:22:06.872Z,16.80
2022-11-03T12:24:25.962Z,16.90
2022-11-03T12:26:40.509Z,17.00
2022-11-03T12:28:43.406Z,17.10
2022-11-03T12:30:46.024Z,17.10
2022-11-03T12:32:49.135Z,17.10
2022-11-03T12:34:53.165Z,17.00
2022-11-03T12:36:56.476Z,17.00
2022-11-03T12:38:59.407Z,17.10
2022-11-03T12:41:04.688Z,17.10
2022-11-03T12:43:07.464Z,17.20
2022-11-03T12:45:12.976Z,17.20
2022-11-03T12:47:15.473Z,17.30
2022-11-03T12:49:18.002Z,17.40
2022-11-03T12:51:22.077Z,17.40
2022-11-03T12:53:24.809Z,17.30
2022-11-03T12:57:30.777Z,17.20
2022-11-03T12:59:33.250Z,17.30
2022-11-03T13:01:37.089Z,17.20
2022-11-03T13:03:39.752Z,17.20
2022-11-03T13:05:42.249Z,17.10
2022-11-03T13:07:44.725Z,17.00
2022-11-03T13:09:48.133Z,16.90
2022-11-03T13:12:08.603Z,16.90
2022-11-03T13:14:11.139Z,16.90
2022-11-03T13:16:13.834Z,16.80
2022-11-03T13:18:16.371Z,16.70
2022-11-03T13:20:18.872Z,16.70
2022-11-03T13:22:21.655Z,16.70
2022-11-03T13:24:24.168Z,16.70
2022-11-03T13:26:26.885Z,16.80
2022-11-03T13:28:29.396Z,16.90
2022-11-03T13:30:33.105Z,16.90
2022-11-03T13:32:35.751Z,16.90
2022-11-03T13:34:38.339Z,16.90
2022-11-03T13:36:40.836Z,16.90
2022-11-03T13:38:43.322Z,16.90
2022-11-03T13:41:07.062Z,16.80
2022-11-03T13:42:50.121Z,16.80
2022-11-03T13:44:53.204Z,16.70
2022-11-03T13:46:55.732Z,16.60
2022-11-03T13:51:03.018Z,16.50
2022-11-03T13:59:27.779Z,16.40
2022-11-03T14:01:24.325Z,16.40
2022-11-03T14:05:31.884Z,16.20
2022-11-03T14:07:34.384Z,16.20
2022-11-03T14:11:57.265Z,16.10
2022-11-03T14:13:59.740Z,16.00
2022-11-03T14:16:02.416Z,16.00
2022-11-03T14:18:05.127Z,15.90
2022-11-03T14:20:09.795Z,15.90
2022-11-03T14:22:12.399Z,15.80
2022-11-03T14:24:14.851Z,15.80
2022-11-03T14:26:32.911Z,15.80
2022-11-03T14:28:26.071Z,15.60
2022-11-03T14:30:26.240Z,15.70
2022-11-03T14:32:28.735Z,15.60
2022-11-03T14:34:31.321Z,15.60
2022-11-03T14:36:33.824Z,15.50
2022-11-03T14:38:36.365Z,15.50
2022-11-03T14:40:57.148Z,15.40
2022-11-03T14:43:00.227Z,15.30
2022-11-03T14:45:02.993Z,15.20
2022-11-03T14:47:06.324Z,15.20
2022-11-03T14:49:09.232Z,15.10
2022-11-03T14:51:11.704Z,15.10
2022-11-03T14:53:14.227Z,15.10
2022-11-03T14:55:16.882Z,15.00
2022-11-03T14:57:19.332Z,15.00
2022-11-03T14:59:22.068Z,14.90
2022-11-03T15:01:24.623Z,14.90
2022-11-03T15:03:27.679Z,14.90
2022-11-03T15:05:45.139Z,14.80
2022-11-03T15:07:47.605Z,14.80
2022-11-03T15:09:50.529Z,14.80
2022-11-03T15:11:53.464Z,14.80
2022-11-03T15:13:55.980Z,14.70
2022-11-03T15:15:59.443Z,14.70
2022-11-03T15:18:03.122Z,14.70
2022-11-03T15:20:07.112Z,14.70
2022-11-03T15:22:09.679Z,14.70
2022-11-03T15:26:16.987Z,14.70
2022-11-03T15:28:20.544Z,14.70
2022-11-03T15:30:24.468Z,14.70
2022-11-03T15:32:26.985Z,14.60
2022-11-03T15:34:29.536Z,14.70
2022-11-03T15:36:32.750Z,14.70
2022-11-03T15:38:35.472Z,14.60
2022-11-03T15:40:37.972Z,14.60
2022-11-03T15:42:40.584Z,14.60
2022-11-03T15:44:43.089Z,14.60
2022-11-03T15:46:45.593Z,14.60
2022-11-03T15:48:48.724Z,14.60
2022-11-03T15:50:52.183Z,14.60
2022-11-03T15:52:54.997Z,14.60
2022-11-03T15:54:57.504Z,14.60
2022-11-03T15:57:00.611Z,14.60
2022-11-03T15:59:03.136Z,14.60
2022-11-03T16:01:27.256Z,14.60
2022-11-03T16:03:58.893Z,14.60
2022-11-03T16:09:12.794Z,14.50
2022-11-03T16:13:43.912Z,14.40
2022-11-03T16:15:46.503Z,14.40
2022-11-03T16:17:49.970Z,14.30
2022-11-03T16:19:52.471Z,14.40
2022-11-03T16:21:54.995Z,14.30
2022-11-03T16:23:57.503Z,14.30
2022-11-03T16:25:59.991Z,14.30
2022-11-03T16:28:02.568Z,14.30
2022-11-03T16:30:06.414Z,14.30
2022-11-03T16:32:08.854Z,14.30
2022-11-03T16:34:11.557Z,14.30
2022-11-03T16:36:14.091Z,15.00
2022-11-03T16:38:16.580Z,14.30
2022-11-03T16:40:20.066Z,14.20
2022-11-03T16:42:22.824Z,14.30
2022-11-03T16:44:25.329Z,14.20
2022-11-03T16:46:27.952Z,14.20
2022-11-03T16:48:30.465Z,14.20
2022-11-03T16:50:33.075Z,14.20
2022-11-03T16:52:35.901Z,14.20
2022-11-03T16:54:38.397Z,14.20
2022-11-03T16:56:41.336Z,14.20
2022-11-03T16:58:44.168Z,14.00
2022-11-03T17:00:46.974Z,13.80
2022-11-03T17:02:49.656Z,13.60
2022-11-03T17:04:52.216Z,13.40
2022-11-03T17:06:54.728Z,13.30
2022-11-03T17:08:57.417Z,13.20
2022-11-03T17:10:59.916Z,13.10
2022-11-03T17:13:06.201Z,13.00
2022-11-03T17:15:07.493Z,13.00
2022-11-03T17:17:10.115Z,12.90
2022-11-03T17:19:12.583Z,12.90
2022-11-03T17:21:15.075Z,12.80
2022-11-03T17:23:18.628Z,12.80
2022-11-03T17:25:21.239Z,12.80
2022-11-03T17:27:25.330Z,12.80
2022-11-03T17:29:30.740Z,12.80
2022-11-03T17:31:33.245Z,12.80
2022-11-03T17:33:37.323Z,12.80
2022-11-03T17:35:41.355Z,12.70
2022-11-03T17:37:44.323Z,12.80
2022-11-03T17:39:47.115Z,12.80
2022-11-03T17:41:49.592Z,12.70
2022-11-03T17:43:52.584Z,12.70
2022-11-03T17:45:55.193Z,12.60
2022-11-03T17:47:57.888Z,12.50
2022-11-03T17:50:00.403Z,12.40
2022-11-03T17:52:02.902Z,12.40
2022-11-03T17:54:07.436Z,12.40
2022-11-03T17:56:41.530Z,12.30
2022-11-03T17:58:16.780Z,12.30
2022-11-03T18:00:20.658Z,12.20
2022-11-03T18:02:24.141Z,12.20
2022-11-03T18:04:26.908Z,12.20
2022-11-03T18:06:29.720Z,12.20
2022-11-03T18:08:33.139Z,12.20
2022-11-03T18:10:37.812Z,12.20
2022-11-03T18:12:58.948Z,12.20
2022-11-03T18:15:02.533Z,12.20
2022-11-03T18:17:05.473Z,12.20
2022-11-03T18:19:11.321Z,12.20
2022-11-03T18:21:14.892Z,12.20
2022-11-03T18:23:18.364Z,12.20
2022-11-03T18:25:21.364Z,12.20
2022-11-03T18:27:25.498Z,12.30
2022-11-03T18:29:28.207Z,12.30
2022-11-03T18:31:33.950Z,12.30
2022-11-03T18:33:36.660Z,12.30
2022-11-03T18:35:39.452Z,12.30
2022-11-03T18:37:43.602Z,12.30
2022-11-03T18:39:46.086Z,12.30
2022-11-03T18:41:48.576Z,12.30
2022-11-03T18:43:51.113Z,12.30
2022-11-03T18:45:53.580Z,12.30
2022-11-03T18:47:56.063Z,12.30
2022-11-03T18:49:58.577Z,12.30
2022-11-03T18:52:04.201Z,12.30
2022-11-03T18:54:08.520Z,12.30
2022-11-03T18:56:11.809Z,12.30
2022-11-03T18:58:16.682Z,12.40
2022-11-03T19:00:21.085Z,12.40
2022-11-03T19:02:25.364Z,12.30
2022-11-03T19:04:27.897Z,12.40
2022-11-03T19:06:30.397Z,12.30
2022-11-03T19:08:33.321Z,12.30
2022-11-03T19:10:35.848Z,12.30
2022-11-03T19:12:39.381Z,12.30
2022-11-03T19:14:44.333Z,12.30
2022-11-03T19:17:02.223Z,12.40
2022-11-03T19:18:52.350Z,12.40
2022-11-03T19:20:54.874Z,12.30
2022-11-03T19:22:57.538Z,12.30
2022-11-03T19:25:00.937Z,12.30
2022-11-03T19:27:05.820Z,12.30
2022-11-03T19:29:10.725Z,12.40
2022-11-03T19:31:15.805Z,12.40
2022-11-03T19:33:20.442Z,12.40
2022-11-03T19:35:24.751Z,12.40
2022-11-03T19:37:32.428Z,12.40
2022-11-03T19:39:32.647Z,12.30
2022-11-03T19:41:53.227Z,12.40
2022-11-03T19:43:55.721Z,12.30
2022-11-03T19:45:58.639Z,12.20
2022-11-03T19:48:23.062Z,12.30
2022-11-03T19:50:09.095Z,12.20
2022-11-03T19:52:13.465Z,12.10
2022-11-03T19:54:17.485Z,12.10
2022-11-03T19:56:20.206Z,12.10
2022-11-03T19:58:24.072Z,12.10
2022-11-03T20:00:26.612Z,12.10
2022-11-03T20:02:29.370Z,12.00
2022-11-03T20:04:32.072Z,11.90
2022-11-03T20:06:37.273Z,11.90
2022-11-03T20:08:39.846Z,11.90
2022-11-03T20:10:44.281Z,11.80
2022-11-03T20:12:46.770Z,11.80
2022-11-03T20:14:49.252Z,11.70
2022-11-03T20:16:52.073Z,11.60
2022-11-03T20:18:54.662Z,11.50
2022-11-03T20:20:57.697Z,11.50
2022-11-03T20:23:00.323Z,11.40
2022-11-03T20:25:04.753Z,11.40
2022-11-03T20:27:09.405Z,11.50
2022-11-03T20:29:13.428Z,11.50
2022-11-03T20:31:16.335Z,11.40
2022-11-03T20:33:19.616Z,11.40
2022-11-03T20:35:24.162Z,11.30
2022-11-03T20:37:27.273Z,11.30
2022-11-03T20:39:29.749Z,11.30
2022-11-03T20:41:32.573Z,11.30
2022-11-03T20:43:37.076Z,11.20
2022-11-03T20:45:39.926Z,11.20
2022-11-03T20:47:47.996Z,11.20
2022-11-03T20:49:47.936Z,11.20
2022-11-03T20:51:50.622Z,11.20
2022-11-03T20:53:53.720Z,11.30
2022-11-03T20:55:56.304Z,11.20
2022-11-03T20:57:59.191Z,11.20
2022-11-03T21:00:01.832Z,11.20
2022-11-03T21:02:08.016Z,11.20
2022-11-03T21:04:13.169Z,11.20
2022-11-03T21:06:17.465Z,11.30
2022-11-03T21:08:20.176Z,11.30
2022-11-03T21:10:23.494Z,11.30
2022-11-03T21:12:25.977Z,11.30
2022-11-03T21:14:29.466Z,11.30
2022-11-03T21:16:50.328Z,11.30
2022-11-03T21:19:11.065Z,11.30
2022-11-03T21:21:18.236Z,11.30
2022-11-03T21:23:20.930Z,11.30
2022-11-03T21:25:24.456Z,11.30
2022-11-03T21:27:27.521Z,11.30
2022-11-03T21:31:34.452Z,11.30
2022-11-03T21:33:37.104Z,11.30
2022-11-03T21:35:40.429Z,11.30
2022-11-03T21:37:42.916Z,11.30
2022-11-03T21:39:45.832Z,11.30
2022-11-03T21:42:06.461Z,11.30
2022-11-03T21:44:15.045Z,11.30
2022-11-03T21:46:17.658Z,11.30
2022-11-03T21:48:38.062Z,11.30
2022-11-03T21:50:40.544Z,11.30
2022-11-03T21:52:43.073Z,11.30
2022-11-03T21:54:45.600Z,11.30
2022-11-03T21:56:48.056Z,11.30
2022-11-03T21:58:50.558Z,11.40
2022-11-03T22:00:53.125Z,11.30
2022-11-03T22:02:55.768Z,11.30
2022-11-03T22:04:58.499Z,11.40
2022-11-03T22:07:01.014Z,11.30
2022-11-03T22:09:03.677Z,11.30
2022-11-03T22:11:22.041Z,11.40
2022-11-03T22:13:24.525Z,11.40
2022-11-03T22:15:44.743Z,11.30
2022-11-03T22:17:47.265Z,11.40
2022-11-03T22:20:07.656Z,11.40
2022-11-03T22:22:29.450Z,11.30
2022-11-03T22:24:50.213Z,11.40
2022-11-03T22:26:55.697Z,11.40
2022-11-03T22:29:16.321Z,11.40
2022-11-03T22:31:37.053Z,11.40
2022-11-03T22:33:41.553Z,11.50
2022-11-03T22:36:09.254Z,11.50
2022-11-03T22:38:12.748Z,11.50
2022-11-03T22:40:33.110Z,11.50
2022-11-03T22:42:53.560Z,11.50
2022-11-03T22:45:14.213Z,11.50
2022-11-03T22:47:18.730Z,11.50
2022-11-03T22:49:21.035Z,11.60
2022-11-03T22:51:23.487Z,11.60
2022-11-03T22:53:44.296Z,11.60
2022-11-03T22:55:46.892Z,11.60
2022-11-03T22:57:49.379Z,11.60
2022-11-03T22:59:51.887Z,11.60
2022-11-03T23:01:54.492Z,11.60
2022-11-03T23:03:57.488Z,11.70
2022-11-03T23:06:01.188Z,11.60
2022-11-03T23:08:03.823Z,11.70
2022-11-03T23:10:07.303Z,11.70
2022-11-03T23:12:10.714Z,11.70
2022-11-03T23:14:13.335Z,11.70
2022-11-03T23:16:17.278Z,11.80
2022-11-03T23:18:37.592Z,11.70
2022-11-03T23:20:58.095Z,11.70
2022-11-03T23:23:00.639Z,11.70
2022-11-03T23:25:03.223Z,11.80
2022-11-03T23:27:06.025Z,11.80
2022-11-03T23:29:09.224Z,11.80
2022-11-03T23:31:12.250Z,11.80
2022-11-03T23:33:14.720Z,11.90
2022-11-03T23:35:17.795Z,11.90
2022-11-03T23:37:20.425Z,11.90
2022-11-03T23:39:22.900Z,11.90
2022-11-03T23:41:25.873Z,11.90
2022-11-03T23:43:28.400Z,11.90
2022-11-03T23:45:48.669Z,11.90
2022-11-03T23:48:10.049Z,11.90
2022-11-03T23:50:12.928Z,11.90
2022-11-03T23:52:15.424Z,11.90
2022-11-03T23:54:18.164Z,11.90
2022-11-03T23:56:39.684Z,11.90
2022-11-03T23:58:42.316Z,12.00
